createdAt,value
2022-10-30T00:00:20.013Z,21.40
2022-10-30T00:01:20.064Z,20.40
2022-10-30T00:02:20.130Z,21.60
2022-10-30T00:03:20.038Z,20.60
2022-10-30T00:04:19.957Z,21.80
2022-10-30T00:05:19.946Z,21.10
2022-10-30T00:06:19.914Z,21.70
2022-10-30T00:07:19.923Z,21.90
2022-10-30T00:08:19.913Z,21.50
2022-10-30T00:09:19.882Z,20.90
2022-10-30T00:10:19.876Z,21.20
2022-10-30T00:11:19.871Z,23.10
2022-10-30T00:12:19.857Z,21.60
2022-10-30T00:13:19.933Z,21.20
2022-10-30T00:14:19.888Z,21.40
2022-10-30T00:15:19.844Z,22.30
2022-10-30T00:16:19.788Z,20.70
2022-10-30T00:17:19.790Z,22.60
2022-10-30T00:18:19.766Z,21.30
2022-10-30T00:19:19.876Z,22.80
2022-10-30T00:20:19.770Z,21.30
2022-10-30T00:21:19.756Z,22.90
2022-10-30T00:22:19.750Z,22.60
2022-10-30T00:23:20.445Z,24.30
2022-10-30T00:24:19.698Z,22.10
2022-10-30T00:25:19.792Z,22.90
2022-10-30T00:26:19.689Z,22.30
2022-10-30T00:27:19.649Z,23.40
2022-10-30T00:28:19.634Z,23.50
2022-10-30T00:29:19.623Z,26.90
2022-10-30T00:30:19.588Z,26.60
2022-10-30T00:31:19.708Z,22.00
2022-10-30T00:32:19.592Z,21.50
2022-10-30T00:33:19.559Z,22.10
2022-10-30T00:34:19.545Z,21.60
2022-10-30T00:35:19.535Z,22.00
2022-10-30T00:36:19.512Z,23.00
2022-10-30T00:37:19.638Z,21.30
2022-10-30T00:38:19.491Z,22.20
2022-10-30T00:39:19.483Z,28.80
2022-10-30T00:40:19.478Z,21.90
2022-10-30T00:41:19.458Z,20.90
2022-10-30T00:42:19.451Z,30.00
2022-10-30T00:43:19.566Z,21.60
2022-10-30T00:44:19.406Z,20.00
2022-10-30T00:45:19.398Z,22.20
2022-10-30T00:46:19.390Z,20.30
2022-10-30T00:47:19.390Z,21.20
2022-10-30T00:48:19.357Z,20.30
2022-10-30T00:49:19.364Z,22.80
2022-10-30T00:50:19.388Z,28.20
2022-10-30T00:51:19.318Z,21.30
2022-10-30T00:52:19.298Z,23.20
2022-10-30T00:53:19.291Z,19.10
2022-10-30T00:54:19.266Z,23.60
2022-10-30T00:55:19.357Z,22.10
2022-10-30T00:56:19.253Z,31.70
2022-10-30T00:57:19.217Z,27.00
2022-10-30T00:58:19.231Z,27.00
2022-10-30T00:59:19.212Z,19.80
2022-10-30T01:00:19.182Z,24.20
2022-10-30T01:01:19.390Z,24.00
2022-10-30T01:02:19.279Z,23.40
2022-10-30T01:03:19.155Z,24.50
2022-10-30T01:04:19.141Z,21.50
2022-10-30T01:05:19.124Z,19.30
2022-10-30T01:06:19.107Z,22.00
2022-10-30T01:07:19.191Z,20.60
2022-10-30T01:08:19.175Z,20.60
2022-10-30T01:09:19.164Z,19.30
2022-10-30T01:10:19.074Z,17.80
2022-10-30T01:11:19.044Z,20.10
2022-10-30T01:12:19.039Z,16.20
2022-10-30T01:13:19.153Z,16.70
2022-10-30T01:14:18.993Z,17.00
2022-10-30T01:15:18.983Z,22.90
2022-10-30T01:16:18.989Z,22.10
2022-10-30T01:17:18.958Z,16.70
2022-10-30T01:18:18.945Z,18.10
2022-10-30T01:19:19.046Z,20.70
2022-10-30T01:20:18.929Z,20.70
2022-10-30T01:21:18.904Z,19.40
2022-10-30T01:22:18.908Z,17.50
2022-10-30T01:23:18.890Z,19.90
2022-10-30T01:24:18.867Z,24.20
2022-10-30T01:25:18.972Z,21.10
2022-10-30T01:26:18.839Z,20.80
2022-10-30T01:27:18.817Z,18.90
2022-10-30T01:28:18.837Z,27.70
2022-10-30T01:29:18.801Z,18.50
2022-10-30T01:30:18.804Z,23.80
2022-10-30T01:31:18.919Z,23.00
2022-10-30T01:32:18.754Z,21.80
2022-10-30T01:33:18.743Z,24.20
2022-10-30T01:34:18.722Z,19.70
2022-10-30T01:35:18.710Z,19.50
2022-10-30T01:36:18.713Z,18.50
2022-10-30T01:37:18.802Z,19.00
2022-10-30T01:38:18.697Z,20.00
2022-10-30T01:39:18.677Z,28.00
2022-10-30T01:40:18.654Z,17.50
2022-10-30T01:41:18.647Z,27.40
2022-10-30T01:42:18.603Z,20.40
2022-10-30T01:43:18.723Z,20.10
2022-10-30T01:44:18.600Z,18.20
2022-10-30T01:45:18.564Z,15.90
2022-10-30T01:46:18.581Z,15.40
2022-10-30T01:47:18.558Z,17.10
2022-10-30T01:48:18.535Z,17.60
2022-10-30T01:49:18.697Z,15.10
2022-10-30T01:50:18.529Z,14.00
2022-10-30T01:51:18.514Z,14.30
2022-10-30T01:52:18.484Z,14.50
2022-10-30T01:53:18.483Z,14.50
2022-10-30T01:54:18.457Z,16.50
2022-10-30T01:55:18.557Z,18.80
2022-10-30T01:56:18.441Z,20.90
2022-10-30T01:57:18.408Z,18.70
2022-10-30T01:58:18.422Z,18.40
2022-10-30T01:59:18.425Z,14.80
2022-10-30T02:00:18.378Z,17.60
2022-10-30T02:01:18.534Z,16.50
2022-10-30T02:02:18.434Z,21.10
2022-10-30T02:03:18.338Z,22.80
2022-10-30T02:04:18.345Z,17.20
2022-10-30T02:05:18.315Z,14.20
2022-10-30T02:06:18.291Z,14.00
2022-10-30T02:07:18.390Z,13.80
2022-10-30T02:08:18.289Z,14.20
2022-10-30T02:09:18.255Z,15.90
2022-10-30T02:10:18.255Z,15.50
2022-10-30T02:11:18.236Z,13.90
2022-10-30T02:12:18.218Z,20.90
2022-10-30T02:13:18.327Z,18.50
2022-10-30T02:14:18.184Z,20.40
2022-10-30T02:15:18.171Z,15.60
2022-10-30T02:16:18.185Z,16.70
2022-10-30T02:17:18.135Z,16.40
2022-10-30T02:18:18.149Z,17.70
2022-10-30T02:19:18.160Z,16.20
2022-10-30T02:20:18.105Z,20.30
2022-10-30T02:21:18.098Z,22.00
2022-10-30T02:22:18.194Z,23.60
2022-10-30T02:23:18.079Z,17.90
2022-10-30T02:24:18.046Z,19.90
2022-10-30T02:25:18.171Z,20.60
2022-10-30T02:26:18.027Z,28.30
2022-10-30T02:27:18.018Z,19.20
2022-10-30T02:28:18.002Z,16.30
2022-10-30T02:29:17.989Z,31.90
2022-10-30T02:30:17.992Z,23.60
2022-10-30T02:31:18.117Z,17.60
2022-10-30T02:32:17.951Z,17.40
2022-10-30T02:34:17.929Z,17.00
2022-10-30T02:35:17.913Z,18.10
2022-10-30T02:36:17.904Z,22.80
2022-10-30T02:37:17.901Z,17.30
2022-10-30T02:38:17.876Z,29.20
2022-10-30T02:39:17.886Z,23.10
2022-10-30T02:40:17.843Z,19.60
2022-10-30T02:41:17.837Z,23.40
2022-10-30T02:42:17.813Z,21.30
2022-10-30T02:43:17.836Z,20.40
2022-10-30T02:44:17.807Z,20.60
2022-10-30T02:45:17.765Z,27.50
2022-10-30T02:46:17.782Z,19.50
2022-10-30T02:47:17.752Z,18.20
2022-10-30T02:48:17.738Z,24.60
2022-10-30T02:49:17.860Z,18.60
2022-10-30T02:50:17.706Z,19.10
2022-10-30T02:51:17.686Z,21.00
2022-10-30T02:52:17.691Z,27.30
2022-10-30T02:53:17.672Z,19.60
2022-10-30T02:54:17.640Z,16.90
2022-10-30T02:55:17.672Z,21.80
2022-10-30T02:56:17.642Z,18.20
2022-10-30T02:57:17.608Z,26.50
2022-10-30T02:58:17.623Z,22.50
2022-10-30T02:59:17.584Z,19.10
2022-10-30T03:00:17.578Z,22.50
2022-10-30T03:01:17.804Z,21.50
2022-10-30T03:02:17.633Z,21.90
2022-10-30T03:03:20.054Z,31.60
2022-10-30T03:04:18.537Z,22.60
2022-10-30T03:05:17.508Z,20.80
2022-10-30T03:06:17.504Z,24.20
2022-10-30T03:07:17.613Z,23.10
2022-10-30T03:08:17.452Z,26.70
2022-10-30T03:09:17.443Z,24.30
2022-10-30T03:10:17.458Z,24.50
2022-10-30T03:11:17.426Z,26.80
2022-10-30T03:12:17.403Z,23.70
2022-10-30T03:13:17.527Z,23.00
2022-10-30T03:14:17.389Z,27.70
2022-10-30T03:15:17.361Z,16.90
2022-10-30T03:16:17.367Z,22.40
2022-10-30T03:17:17.327Z,17.80
2022-10-30T03:18:17.330Z,17.10
2022-10-30T03:19:17.430Z,22.40
2022-10-30T03:20:17.296Z,20.70
2022-10-30T03:21:17.282Z,23.20
2022-10-30T03:22:17.262Z,19.70
2022-10-30T03:23:17.247Z,20.40
2022-10-30T03:24:17.253Z,18.50
2022-10-30T03:25:17.342Z,16.80
2022-10-30T03:26:17.215Z,28.70
2022-10-30T03:27:17.188Z,21.40
2022-10-30T03:28:17.192Z,26.60
2022-10-30T03:29:17.159Z,22.00
2022-10-30T03:30:17.172Z,29.70
2022-10-30T03:31:17.274Z,23.30
2022-10-30T03:32:17.193Z,27.90
2022-10-30T03:33:17.132Z,21.90
2022-10-30T03:34:17.106Z,19.10
2022-10-30T03:35:17.092Z,17.60
2022-10-30T03:36:17.096Z,19.20
2022-10-30T03:37:17.172Z,24.70
2022-10-30T03:38:17.066Z,25.60
2022-10-30T03:39:17.047Z,24.70
2022-10-30T03:40:17.030Z,18.20
2022-10-30T03:41:17.018Z,16.40
2022-10-30T03:42:16.992Z,19.20
2022-10-30T03:43:17.006Z,18.10
2022-10-30T03:44:16.987Z,21.70
2022-10-30T03:45:16.956Z,17.20
2022-10-30T03:46:16.950Z,17.90
2022-10-30T03:47:16.938Z,17.30
2022-10-30T03:48:16.915Z,17.50
2022-10-30T03:49:16.955Z,17.10
2022-10-30T03:50:16.889Z,19.10
2022-10-30T03:51:16.866Z,18.10
2022-10-30T03:52:16.886Z,16.30
2022-10-30T03:53:16.847Z,17.90
2022-10-30T03:54:16.851Z,25.60
2022-10-30T03:55:16.942Z,33.30
2022-10-30T03:56:16.809Z,21.30
2022-10-30T03:57:16.799Z,22.60
2022-10-30T03:58:16.802Z,29.80
2022-10-30T03:59:16.781Z,23.50
2022-10-30T04:00:16.751Z,19.50
2022-10-30T04:01:17.093Z,15.70
2022-10-30T04:02:16.894Z,14.80
2022-10-30T04:03:16.710Z,19.20
2022-10-30T04:04:16.717Z,29.20
2022-10-30T04:05:16.682Z,18.30
2022-10-30T04:06:16.688Z,21.10
2022-10-30T04:07:16.703Z,16.40
2022-10-30T04:08:16.642Z,17.20
2022-10-30T04:09:16.644Z,18.60
2022-10-30T04:10:20.966Z,25.30
2022-10-30T04:11:17.831Z,20.60
2022-10-30T04:12:16.606Z,17.90
2022-10-30T04:13:16.718Z,15.20
2022-10-30T04:14:16.569Z,18.40
2022-10-30T04:15:16.551Z,21.90
2022-10-30T04:16:16.559Z,22.10
2022-10-30T04:17:16.516Z,22.90
2022-10-30T04:18:16.533Z,26.10
2022-10-30T04:19:16.550Z,16.90
2022-10-30T04:20:16.485Z,14.70
2022-10-30T04:21:16.479Z,18.60
2022-10-30T04:22:16.456Z,18.00
2022-10-30T04:23:16.440Z,19.10
2022-10-30T04:24:16.442Z,16.90
2022-10-30T04:25:16.527Z,14.10
2022-10-30T04:26:16.422Z,14.90
2022-10-30T04:27:16.401Z,20.40
2022-10-30T04:28:16.380Z,25.00
2022-10-30T04:29:16.360Z,16.40
2022-10-30T04:30:16.364Z,17.60
2022-10-30T04:31:16.384Z,21.90
2022-10-30T04:32:16.321Z,18.80
2022-10-30T04:33:16.323Z,19.10
2022-10-30T04:34:16.293Z,18.30
2022-10-30T04:35:16.279Z,15.00
2022-10-30T04:36:16.284Z,15.00
2022-10-30T04:37:16.375Z,15.30
2022-10-30T04:38:16.273Z,16.60
2022-10-30T04:39:16.239Z,15.90
2022-10-30T04:40:16.212Z,15.40
2022-10-30T04:41:16.209Z,17.00
2022-10-30T04:42:16.184Z,15.50
2022-10-30T04:43:16.203Z,17.80
2022-10-30T04:44:16.169Z,19.40
2022-10-30T04:45:16.175Z,17.50
2022-10-30T04:46:16.125Z,17.10
2022-10-30T04:47:16.117Z,17.00
2022-10-30T04:48:16.120Z,19.30
2022-10-30T04:49:16.128Z,18.70
2022-10-30T04:50:16.093Z,16.80
2022-10-30T04:51:16.081Z,18.30
2022-10-30T04:52:16.047Z,14.20
2022-10-30T04:53:16.054Z,19.10
2022-10-30T04:54:16.020Z,16.80
2022-10-30T04:55:16.127Z,16.60
2022-10-30T04:56:16.003Z,17.30
2022-10-30T04:57:15.989Z,17.60
2022-10-30T04:58:15.995Z,26.40
2022-10-30T04:59:15.973Z,23.80
2022-10-30T05:00:15.939Z,18.90
2022-10-30T05:01:16.194Z,26.50
2022-10-30T05:02:16.164Z,24.00
2022-10-30T05:03:15.916Z,25.80
2022-10-30T05:04:15.880Z,22.40
2022-10-30T05:05:15.894Z,16.80
2022-10-30T05:06:15.862Z,19.60
2022-10-30T05:07:15.881Z,23.40
2022-10-30T05:08:15.844Z,27.50
2022-10-30T05:09:15.825Z,27.70
2022-10-30T05:10:15.825Z,16.30
2022-10-30T05:11:15.824Z,26.40
2022-10-30T05:12:15.784Z,15.20
2022-10-30T05:13:15.833Z,17.10
2022-10-30T05:14:15.746Z,15.90
2022-10-30T05:15:15.747Z,20.60
2022-10-30T05:16:15.741Z,26.50
2022-10-30T05:17:15.783Z,18.70
2022-10-30T05:18:15.696Z,18.00
2022-10-30T05:19:15.806Z,24.80
2022-10-30T05:20:18.772Z,19.60
2022-10-30T05:21:15.656Z,34.10
2022-10-30T05:22:15.652Z,21.10
2022-10-30T05:23:15.652Z,18.40
2022-10-30T05:24:15.616Z,18.10
2022-10-30T05:25:15.745Z,19.10
2022-10-30T05:26:15.589Z,28.40
2022-10-30T05:27:15.578Z,21.80
2022-10-30T05:28:15.574Z,24.50
2022-10-30T05:29:15.552Z,24.10
2022-10-30T05:30:15.550Z,20.50
2022-10-30T05:31:15.683Z,18.10
2022-10-30T05:32:15.649Z,16.70
2022-10-30T05:33:15.499Z,21.10
2022-10-30T05:34:15.496Z,16.00
2022-10-30T05:35:15.495Z,16.90
2022-10-30T05:36:15.459Z,17.10
2022-10-30T05:37:15.485Z,16.30
2022-10-30T05:38:15.445Z,17.00
2022-10-30T05:39:15.448Z,15.30
2022-10-30T05:40:15.413Z,18.50
2022-10-30T05:41:15.392Z,18.20
2022-10-30T05:42:15.390Z,16.90
2022-10-30T05:43:15.497Z,19.00
2022-10-30T05:44:18.083Z,16.00
2022-10-30T05:45:16.353Z,18.20
2022-10-30T05:46:15.324Z,23.10
2022-10-30T05:47:15.305Z,17.80
2022-10-30T05:48:15.300Z,20.50
2022-10-30T05:49:15.402Z,16.10
2022-10-30T05:50:15.279Z,17.80
2022-10-30T05:51:15.270Z,16.90
2022-10-30T05:52:15.236Z,17.00
2022-10-30T05:53:15.250Z,17.60
2022-10-30T05:54:15.208Z,17.10
2022-10-30T05:55:15.328Z,18.10
2022-10-30T05:56:15.204Z,16.20
2022-10-30T05:57:15.185Z,19.90
2022-10-30T05:58:15.173Z,16.90
2022-10-30T05:59:15.164Z,16.30
2022-10-30T06:00:15.138Z,15.90
2022-10-30T06:01:15.225Z,17.00
2022-10-30T06:02:15.139Z,18.10
2022-10-30T06:03:15.100Z,17.90
2022-10-30T06:04:15.105Z,16.80
2022-10-30T06:05:15.085Z,22.80
2022-10-30T06:06:15.060Z,24.20
2022-10-30T06:07:15.162Z,20.90
2022-10-30T06:08:15.036Z,15.70
2022-10-30T06:09:15.022Z,18.30
2022-10-30T06:10:15.016Z,20.90
2022-10-30T06:11:15.007Z,22.90
2022-10-30T06:12:14.973Z,15.80
2022-10-30T06:13:15.008Z,17.00
2022-10-30T06:14:14.944Z,16.40
2022-10-30T06:15:14.943Z,20.50
2022-10-30T06:16:14.936Z,22.00
2022-10-30T06:17:14.913Z,18.90
2022-10-30T06:18:14.909Z,17.60
2022-10-30T06:19:18.373Z,16.90
2022-10-30T06:20:14.865Z,21.80
2022-10-30T06:21:14.896Z,18.10
2022-10-30T06:22:14.850Z,30.80
2022-10-30T06:23:14.843Z,26.60
2022-10-30T06:24:14.815Z,19.40
2022-10-30T06:25:14.853Z,27.10
2022-10-30T06:26:14.790Z,20.00
2022-10-30T06:27:14.778Z,27.00
2022-10-30T06:28:14.776Z,20.80
2022-10-30T06:29:14.751Z,18.50
2022-10-30T06:30:14.751Z,17.00
2022-10-30T06:31:14.904Z,17.70
2022-10-30T06:32:14.711Z,17.50
2022-10-30T06:33:14.713Z,17.50
2022-10-30T06:34:14.681Z,18.00
2022-10-30T06:35:14.670Z,19.10
2022-10-30T06:36:14.675Z,20.60
2022-10-30T06:37:14.868Z,19.10
2022-10-30T06:38:14.621Z,18.10
2022-10-30T06:39:14.624Z,18.50
2022-10-30T06:40:14.616Z,16.00
2022-10-30T06:41:14.596Z,18.20
2022-10-30T06:42:14.589Z,19.00
2022-10-30T06:43:14.607Z,19.40
2022-10-30T06:44:14.545Z,21.50
2022-10-30T06:45:14.558Z,19.40
2022-10-30T06:46:14.519Z,19.60
2022-10-30T06:47:14.512Z,21.10
2022-10-30T06:48:14.499Z,22.60
2022-10-30T06:49:14.621Z,22.10
2022-10-30T06:50:14.482Z,28.70
2022-10-30T06:51:14.471Z,21.00
2022-10-30T06:52:14.437Z,18.70
2022-10-30T06:53:14.448Z,23.20
2022-10-30T06:54:14.408Z,22.10
2022-10-30T06:55:14.548Z,24.90
2022-10-30T06:56:14.400Z,29.00
2022-10-30T06:57:14.367Z,30.60
2022-10-30T06:58:14.363Z,23.40
2022-10-30T06:59:14.363Z,25.30
2022-10-30T07:00:14.338Z,17.70
2022-10-30T07:01:14.556Z,27.40
2022-10-30T07:02:14.417Z,20.40
2022-10-30T07:03:14.290Z,21.10
2022-10-30T07:04:14.290Z,19.70
2022-10-30T07:05:14.273Z,18.90
2022-10-30T07:06:14.265Z,25.10
2022-10-30T07:07:14.387Z,34.50
2022-10-30T07:08:14.225Z,27.20
2022-10-30T07:09:14.212Z,21.90
2022-10-30T07:10:14.216Z,25.40
2022-10-30T07:11:14.225Z,27.50
2022-10-30T07:12:14.173Z,25.20
2022-10-30T07:13:14.298Z,27.70
2022-10-30T07:14:14.142Z,29.30
2022-10-30T07:15:14.138Z,21.30
2022-10-30T07:16:14.141Z,25.10
2022-10-30T07:17:14.141Z,27.20
2022-10-30T07:18:14.118Z,18.20
2022-10-30T07:19:14.237Z,19.80
2022-10-30T07:20:14.055Z,22.70
2022-10-30T07:21:14.069Z,20.40
2022-10-30T07:22:14.046Z,23.50
2022-10-30T07:23:14.027Z,30.10
2022-10-30T07:24:14.022Z,25.80
2022-10-30T07:25:14.131Z,17.70
2022-10-30T07:26:13.982Z,24.00
2022-10-30T07:27:13.966Z,20.30
2022-10-30T07:28:13.969Z,18.70
2022-10-30T07:29:13.946Z,23.10
2022-10-30T07:30:13.968Z,16.60
2022-10-30T07:31:20.025Z,16.70
2022-10-30T07:32:14.901Z,18.20
2022-10-30T07:33:13.906Z,23.30
2022-10-30T07:34:13.869Z,29.50
2022-10-30T07:35:13.870Z,16.00
2022-10-30T07:36:13.855Z,25.30
2022-10-30T07:37:13.959Z,20.90
2022-10-30T07:38:13.834Z,18.00
2022-10-30T07:39:13.834Z,21.80
2022-10-30T07:40:13.795Z,18.40
2022-10-30T07:41:13.791Z,18.70
2022-10-30T07:42:13.798Z,17.90
2022-10-30T07:43:13.817Z,16.10
2022-10-30T07:44:13.753Z,15.80
2022-10-30T07:45:13.858Z,17.40
2022-10-30T07:46:13.703Z,15.30
2022-10-30T07:47:13.778Z,18.30
2022-10-30T07:48:13.699Z,18.00
2022-10-30T07:49:13.821Z,16.80
2022-10-30T07:50:13.669Z,16.90
2022-10-30T07:51:13.671Z,20.80
2022-10-30T07:52:17.142Z,16.20
2022-10-30T07:53:13.639Z,15.80
2022-10-30T07:54:13.597Z,15.80
2022-10-30T07:55:13.638Z,22.30
2022-10-30T07:56:13.591Z,24.50
2022-10-30T07:57:13.567Z,17.90
2022-10-30T07:58:13.560Z,26.30
2022-10-30T07:59:13.553Z,17.60
2022-10-30T08:00:13.534Z,19.30
2022-10-30T08:01:13.847Z,18.10
2022-10-30T08:02:13.638Z,20.40
2022-10-30T08:03:13.489Z,25.00
2022-10-30T08:04:13.485Z,15.70
2022-10-30T08:05:13.462Z,14.80
2022-10-30T08:06:13.458Z,19.80
2022-10-30T08:07:13.581Z,16.00
2022-10-30T08:08:13.434Z,15.30
2022-10-30T08:09:13.428Z,14.10
2022-10-30T08:10:13.382Z,12.90
2022-10-30T08:11:13.381Z,14.80
2022-10-30T08:12:13.369Z,14.10
2022-10-30T08:13:13.408Z,16.30
2022-10-30T08:14:13.334Z,12.70
2022-10-30T08:15:13.330Z,13.00
2022-10-30T08:16:13.326Z,13.70
2022-10-30T08:17:13.293Z,13.60
2022-10-30T08:18:13.289Z,13.40
2022-10-30T08:19:13.327Z,12.60
2022-10-30T08:20:13.248Z,13.50
2022-10-30T08:21:13.260Z,12.10
2022-10-30T08:22:13.225Z,12.20
2022-10-30T08:23:13.216Z,12.20
2022-10-30T08:24:13.211Z,14.70
2022-10-30T08:25:13.309Z,12.10
2022-10-30T08:26:13.181Z,12.30
2022-10-30T08:27:13.181Z,11.80
2022-10-30T08:28:13.146Z,12.50
2022-10-30T08:29:13.140Z,12.40
2022-10-30T08:30:13.134Z,12.80
2022-10-30T08:31:13.163Z,12.60
2022-10-30T08:32:13.152Z,12.50
2022-10-30T08:33:13.104Z,13.80
2022-10-30T08:34:13.082Z,11.80
2022-10-30T08:35:17.201Z,12.10
2022-10-30T08:36:14.093Z,11.90
2022-10-30T08:37:13.030Z,12.00
2022-10-30T08:38:13.025Z,12.40
2022-10-30T08:39:13.019Z,11.70
2022-10-30T08:40:12.985Z,11.20
2022-10-30T08:41:12.985Z,11.60
2022-10-30T08:42:13.078Z,11.10
2022-10-30T08:43:12.947Z,12.00
2022-10-30T08:44:12.951Z,10.70
2022-10-30T08:45:12.939Z,11.70
2022-10-30T08:46:12.903Z,12.50
2022-10-30T08:47:12.896Z,11.70
2022-10-30T08:48:13.009Z,12.00
2022-10-30T08:49:12.867Z,11.90
2022-10-30T08:50:12.937Z,10.80
2022-10-30T08:51:12.859Z,11.20
2022-10-30T08:52:12.825Z,11.00
2022-10-30T08:53:12.830Z,11.00
2022-10-30T08:54:12.939Z,11.00
2022-10-30T08:55:12.787Z,11.30
2022-10-30T08:56:12.796Z,10.70
2022-10-30T08:57:12.758Z,11.80
2022-10-30T08:58:12.752Z,11.40
2022-10-30T08:59:17.129Z,11.30
2022-10-30T09:00:13.771Z,10.80
2022-10-30T09:01:12.754Z,11.40
2022-10-30T09:02:12.772Z,11.60
2022-10-30T09:03:12.670Z,10.70
2022-10-30T09:04:12.687Z,10.90
2022-10-30T09:05:12.653Z,11.80
2022-10-30T09:06:12.694Z,11.10
2022-10-30T09:07:13.145Z,11.80
2022-10-30T09:08:12.613Z,11.20
2022-10-30T09:09:12.607Z,11.00
2022-10-30T09:10:12.581Z,11.30
2022-10-30T09:11:12.563Z,10.80
2022-10-30T09:12:12.608Z,11.40
2022-10-30T09:13:12.542Z,10.90
2022-10-30T09:14:12.547Z,10.30
2022-10-30T09:15:12.540Z,10.60
2022-10-30T09:16:12.515Z,10.20
2022-10-30T09:17:12.494Z,10.30
2022-10-30T09:18:12.529Z,10.70
2022-10-30T09:19:17.616Z,10.80
2022-10-30T09:20:13.459Z,11.00
2022-10-30T09:21:12.460Z,11.40
2022-10-30T09:22:12.433Z,10.70
2022-10-30T09:23:12.417Z,11.20
2022-10-30T09:24:12.541Z,10.50
2022-10-30T09:25:12.386Z,10.80
2022-10-30T09:26:16.793Z,10.20
2022-10-30T09:27:13.384Z,10.50
2022-10-30T09:28:12.351Z,11.00
2022-10-30T09:29:12.356Z,10.50
2022-10-30T09:30:12.472Z,10.30
2022-10-30T09:31:12.311Z,10.50
2022-10-30T09:32:12.325Z,10.20
2022-10-30T09:33:12.304Z,10.00
2022-10-30T09:34:12.281Z,10.60
2022-10-30T09:35:12.272Z,11.00
2022-10-30T09:36:13.233Z,10.60
2022-10-30T09:37:12.232Z,10.30
2022-10-30T09:38:12.236Z,10.40
2022-10-30T09:39:12.207Z,10.70
2022-10-30T09:40:12.183Z,10.00
2022-10-30T09:41:12.187Z,10.20
2022-10-30T09:42:12.211Z,10.20
2022-10-30T09:43:12.155Z,9.90
2022-10-30T09:44:12.158Z,10.30
2022-10-30T09:45:29.805Z,9.70
2022-10-30T09:46:13.129Z,9.70
2022-10-30T09:47:12.119Z,9.60
2022-10-30T09:48:12.125Z,10.60
2022-10-30T09:49:12.098Z,9.70
2022-10-30T09:50:12.093Z,9.90
2022-10-30T09:51:12.054Z,9.70
2022-10-30T09:52:12.038Z,10.10
2022-10-30T09:53:12.033Z,9.90
2022-10-30T09:54:12.049Z,10.00
2022-10-30T09:55:11.998Z,10.50
2022-10-30T09:56:11.993Z,10.00
2022-10-30T09:57:11.970Z,11.30
2022-10-30T09:58:11.964Z,10.40
2022-10-30T09:59:11.956Z,10.10
2022-10-30T10:00:12.045Z,10.40
2022-10-30T10:01:11.963Z,10.00
2022-10-30T10:02:12.040Z,10.00
2022-10-30T10:03:11.882Z,10.60
2022-10-30T10:04:11.896Z,10.20
2022-10-30T10:05:11.878Z,10.50
2022-10-30T10:06:11.979Z,9.60
2022-10-30T10:07:11.853Z,10.00
2022-10-30T10:08:11.842Z,10.50
2022-10-30T10:09:11.823Z,10.30
2022-10-30T10:10:11.873Z,10.00
2022-10-30T10:11:11.769Z,10.20
2022-10-30T10:12:11.819Z,10.20
2022-10-30T10:13:11.747Z,9.50
2022-10-30T10:14:11.752Z,9.80
2022-10-30T10:15:11.728Z,10.00
2022-10-30T10:16:11.717Z,9.90
2022-10-30T10:17:11.705Z,9.30
2022-10-30T10:18:11.710Z,9.80
2022-10-30T10:19:11.678Z,9.50
2022-10-30T10:20:11.664Z,10.20
2022-10-30T10:21:11.663Z,9.90
2022-10-30T10:22:11.639Z,10.00
2022-10-30T10:23:11.611Z,9.70
2022-10-30T10:24:11.654Z,9.10
2022-10-30T10:25:11.592Z,9.90
2022-10-30T10:26:11.594Z,9.80
2022-10-30T10:27:11.577Z,9.90
2022-10-30T10:28:11.563Z,10.00
2022-10-30T10:29:11.557Z,9.70
2022-10-30T10:30:11.663Z,9.20
2022-10-30T10:31:11.515Z,9.40
2022-10-30T10:32:11.528Z,9.20
2022-10-30T10:33:11.560Z,9.10
2022-10-30T10:34:11.503Z,9.10
2022-10-30T10:35:11.469Z,9.30
2022-10-30T10:36:11.577Z,9.80
2022-10-30T10:37:11.431Z,9.80
2022-10-30T10:38:11.452Z,10.50
2022-10-30T10:39:11.428Z,10.00
2022-10-30T10:40:11.398Z,9.50
2022-10-30T10:41:11.391Z,9.40
2022-10-30T10:42:11.498Z,9.80
2022-10-30T10:43:11.364Z,9.30
2022-10-30T10:44:11.367Z,9.70
2022-10-30T10:45:11.329Z,9.80
2022-10-30T10:46:11.341Z,9.30
2022-10-30T10:47:11.314Z,9.80
2022-10-30T10:48:11.556Z,9.90
2022-10-30T10:49:11.285Z,9.20
2022-10-30T10:50:11.271Z,9.50
2022-10-30T10:51:11.255Z,9.40
2022-10-30T10:52:11.256Z,9.30
2022-10-30T10:53:11.227Z,9.50
2022-10-30T10:54:11.333Z,9.60
2022-10-30T10:55:11.194Z,9.80
2022-10-30T10:56:11.209Z,9.30
2022-10-30T10:57:11.169Z,9.80
2022-10-30T10:58:11.177Z,9.80
2022-10-30T10:59:11.159Z,10.30
2022-10-30T11:00:11.274Z,9.60
2022-10-30T11:01:11.149Z,9.70
2022-10-30T11:02:11.213Z,9.90
2022-10-30T11:03:11.102Z,9.70
2022-10-30T11:04:11.106Z,9.90
2022-10-30T11:05:11.064Z,9.90
2022-10-30T11:06:11.192Z,9.60
2022-10-30T11:07:11.054Z,9.20
2022-10-30T11:08:11.030Z,10.00
2022-10-30T11:09:11.022Z,9.70
2022-10-30T11:10:11.007Z,10.50
2022-10-30T11:11:10.989Z,10.00
2022-10-30T11:12:11.109Z,10.30
2022-10-30T11:13:10.951Z,10.00
2022-10-30T11:14:10.964Z,10.30
2022-10-30T11:15:10.945Z,9.70
2022-10-30T11:16:10.927Z,10.10
2022-10-30T11:17:10.916Z,9.70
2022-10-30T11:18:10.952Z,9.90
2022-10-30T11:19:10.874Z,9.50
2022-10-30T11:20:10.889Z,9.60
2022-10-30T11:21:10.855Z,9.60
2022-10-30T11:22:10.857Z,9.20
2022-10-30T11:23:10.821Z,9.40
2022-10-30T11:24:10.947Z,9.80
2022-10-30T11:25:10.795Z,8.80
2022-10-30T11:26:10.800Z,9.60
2022-10-30T11:27:10.780Z,9.00
2022-10-30T11:28:10.764Z,9.60
2022-10-30T11:29:10.762Z,9.40
2022-10-30T11:30:10.857Z,9.50
2022-10-30T11:31:10.719Z,9.50
2022-10-30T11:32:10.731Z,9.10
2022-10-30T11:33:10.690Z,8.70
2022-10-30T11:34:10.695Z,9.60
2022-10-30T11:35:10.674Z,9.20
2022-10-30T11:36:15.579Z,9.00
2022-10-30T11:37:11.654Z,9.40
2022-10-30T11:38:10.621Z,8.80
2022-10-30T11:39:10.612Z,8.70
2022-10-30T11:40:10.616Z,9.40
2022-10-30T11:41:10.600Z,8.40
2022-10-30T11:42:10.710Z,9.10
2022-10-30T11:43:10.553Z,9.60
2022-10-30T11:44:10.567Z,8.90
2022-10-30T11:45:10.533Z,9.20
2022-10-30T11:46:10.543Z,9.40
2022-10-30T11:47:10.515Z,9.30
2022-10-30T11:48:13.682Z,8.80
2022-10-30T11:49:10.493Z,8.70
2022-10-30T11:50:10.466Z,8.80
2022-10-30T11:51:10.475Z,9.00
2022-10-30T11:52:10.453Z,8.20
2022-10-30T11:53:10.425Z,7.90
2022-10-30T11:54:10.562Z,8.90
2022-10-30T11:55:10.411Z,9.40
2022-10-30T11:56:10.368Z,8.70
2022-10-30T11:57:10.369Z,8.70
2022-10-30T11:58:10.371Z,9.00
2022-10-30T11:59:10.364Z,9.00
2022-10-30T12:00:10.459Z,9.00
2022-10-30T12:01:10.324Z,8.70
2022-10-30T12:02:10.495Z,8.50
2022-10-30T12:03:10.292Z,8.50
2022-10-30T12:04:10.294Z,8.70
2022-10-30T12:05:10.263Z,8.70
2022-10-30T12:06:10.396Z,9.10
2022-10-30T12:07:10.259Z,7.80
2022-10-30T12:08:10.230Z,9.40
2022-10-30T12:09:10.231Z,8.90
2022-10-30T12:10:10.194Z,8.60
2022-10-30T12:11:10.183Z,9.10
2022-10-30T12:12:10.230Z,8.70
2022-10-30T12:13:10.156Z,8.50
2022-10-30T12:14:10.159Z,8.80
2022-10-30T12:15:10.147Z,8.60
2022-10-30T12:16:10.118Z,9.00
2022-10-30T12:17:10.111Z,8.70
2022-10-30T12:18:10.195Z,8.50
2022-10-30T12:19:10.080Z,8.80
2022-10-30T12:20:10.088Z,8.10
2022-10-30T12:21:10.048Z,9.40
2022-10-30T12:22:10.072Z,8.60
2022-10-30T12:23:10.061Z,9.00
2022-10-30T12:24:10.121Z,8.50
2022-10-30T12:25:10.011Z,8.60
2022-10-30T12:26:09.989Z,8.90
2022-10-30T12:27:09.987Z,9.10
2022-10-30T12:28:09.974Z,8.70
2022-10-30T12:29:09.946Z,8.60
2022-10-30T12:30:10.424Z,8.90
2022-10-30T12:31:09.903Z,8.80
2022-10-30T12:32:09.925Z,8.50
2022-10-30T12:33:09.885Z,8.80
2022-10-30T12:35:09.876Z,8.50
2022-10-30T12:36:10.163Z,8.50
2022-10-30T12:37:09.847Z,9.10
2022-10-30T12:38:09.827Z,8.70
2022-10-30T12:39:09.818Z,8.50
2022-10-30T12:40:09.810Z,9.00
2022-10-30T12:41:09.776Z,9.00
2022-10-30T12:42:09.926Z,8.50
2022-10-30T12:43:09.801Z,9.00
2022-10-30T12:44:09.755Z,8.80
2022-10-30T12:45:10.079Z,9.30
2022-10-30T12:46:09.743Z,8.60
2022-10-30T12:47:09.722Z,9.10
2022-10-30T12:48:09.728Z,8.70
2022-10-30T12:49:09.700Z,8.80
2022-10-30T12:50:09.677Z,8.70
2022-10-30T12:51:09.630Z,8.80
2022-10-30T12:52:09.671Z,8.60
2022-10-30T12:53:09.621Z,8.70
2022-10-30T12:54:09.762Z,8.90
2022-10-30T12:55:09.615Z,8.40
2022-10-30T12:56:09.613Z,8.90
2022-10-30T12:57:09.590Z,8.40
2022-10-30T12:58:09.555Z,8.60
2022-10-30T12:59:09.537Z,8.40